createdAt,value
2017-08-28T00:00:54.195Z,95.46
2017-08-28T00:01:54.384Z,95.56
2017-08-28T00:02:53.854Z,95.94
2017-08-28T00:03:54.161Z,95.56
2017-08-28T00:04:53.827Z,95.36
2017-08-28T00:05:54.135Z,94.89
2017-08-28T00:06:53.802Z,95.61
2017-08-28T00:07:53.791Z,95.94
2017-08-28T00:08:54.100Z,95.17
2017-08-28T00:09:53.767Z,95.46
2017-08-28T00:10:53.753Z,95.61
2017-08-28T00:11:54.064Z,95.75
2017-08-28T00:12:53.731Z,95.75
2017-08-28T00:13:53.720Z,95.84
2017-08-28T00:14:54.027Z,95.65
2017-08-28T00:15:54.019Z,95.17
2017-08-28T00:16:54.003Z,94.6
2017-08-28T00:17:53.673Z,94.41
2017-08-28T00:18:53.983Z,94.98
2017-08-28T00:19:53.655Z,94.98
2017-08-28T00:20:53.956Z,94.79
2017-08-28T00:21:53.626Z,94.5
2017-08-28T00:22:53.939Z,94.02
2017-08-28T00:23:53.920Z,94.12
2017-08-28T00:24:53.586Z,93.84
2017-08-28T00:25:53.576Z,93.26
2017-08-28T00:26:53.884Z,93.16
2017-08-28T00:27:53.552Z,92.59
2017-08-28T00:28:53.860Z,92.02
2017-08-28T00:29:53.529Z,92.21
2017-08-28T00:30:53.840Z,91.25
2017-08-28T00:31:53.827Z,91.16
2017-08-28T00:32:53.816Z,91.16
2017-08-28T00:33:53.797Z,91.06
2017-08-28T00:34:53.468Z,91.16
2017-08-28T00:35:53.456Z,90.87
2017-08-28T00:36:53.762Z,91.16
2017-08-28T00:37:53.430Z,91.16
2017-08-28T00:38:53.763Z,90.67
2017-08-28T00:39:53.746Z,90.48
2017-08-28T00:40:53.412Z,90.3
2017-08-28T00:41:53.721Z,90.44
2017-08-28T00:42:53.697Z,90.82
2017-08-28T00:43:53.358Z,90.48
2017-08-28T00:44:53.347Z,90.25
2017-08-28T00:45:53.331Z,90.06
2017-08-28T00:46:53.640Z,90.2
2017-08-28T00:47:53.630Z,90.01
2017-08-28T00:48:53.296Z,90.53
2017-08-28T00:49:53.615Z,90.44
2017-08-28T00:50:53.591Z,89.96
2017-08-28T00:51:53.255Z,89.87
2017-08-28T00:52:53.253Z,89.48
2017-08-28T00:53:53.233Z,89.77
2017-08-28T00:54:53.220Z,89.77
2017-08-28T00:55:53.531Z,89.2
2017-08-28T00:56:53.525Z,88.62
2017-08-28T00:57:53.503Z,88.62
2017-08-28T00:58:53.173Z,88.72
2017-08-28T00:59:53.481Z,88.62
2017-08-28T01:00:53.467Z,89.48
2017-08-28T01:01:53.133Z,88.62
2017-08-28T01:02:53.128Z,88.24
2017-08-28T01:03:53.435Z,88.34
2017-08-28T01:04:53.423Z,87.57
2017-08-28T01:05:53.406Z,87.57
2017-08-28T01:06:53.075Z,86.8
2017-08-28T01:07:53.389Z,86.43
2017-08-28T01:08:53.366Z,85.38
2017-08-28T01:09:53.355Z,85.85
2017-08-28T01:10:53.023Z,85.47
2017-08-28T01:11:53.330Z,85.47
2017-08-28T01:12:53.317Z,85.75
2017-08-28T01:13:52.987Z,85.85
2017-08-28T01:14:52.981Z,85.57
2017-08-28T01:15:52.960Z,85.47
2017-08-28T01:16:52.950Z,84.13
2017-08-28T01:17:52.941Z,83.56
2017-08-28T01:18:53.251Z,83.84
2017-08-28T01:19:52.913Z,83.46
2017-08-28T01:20:52.898Z,83.65
2017-08-28T01:21:52.886Z,83.46
2017-08-28T01:22:52.872Z,83.75
2017-08-28T01:23:53.182Z,83.75
2017-08-28T01:24:52.849Z,83.75
2017-08-28T01:25:53.163Z,83.27
2017-08-28T01:26:52.824Z,83.27
2017-08-28T01:27:52.811Z,83.08
2017-08-28T01:28:53.123Z,83.08
2017-08-28T01:29:53.106Z,81.74
2017-08-28T01:30:52.773Z,81.45
2017-08-28T01:31:53.083Z,82.22
2017-08-28T01:32:52.749Z,82.51
2017-08-28T01:33:53.056Z,82.79
2017-08-28T01:34:52.723Z,83.17
2017-08-28T01:35:52.710Z,83.46
2017-08-28T01:36:52.702Z,82.6
2017-08-28T01:37:53.010Z,82.7
2017-08-28T01:38:52.675Z,82.7
2017-08-28T01:39:52.660Z,82.7
2017-08-28T01:40:52.653Z,82.6
2017-08-28T01:41:52.637Z,82.03
2017-08-28T01:42:52.625Z,82.51
2017-08-28T01:43:52.612Z,82.98
2017-08-28T01:44:52.919Z,82.6
2017-08-28T01:45:52.585Z,82.41
2017-08-28T01:46:52.902Z,82.7
2017-08-28T01:47:52.560Z,83.17
2017-08-28T01:48:52.552Z,83.17
2017-08-28T01:49:52.877Z,82.89
2017-08-28T01:50:52.522Z,83.08
2017-08-28T01:51:52.831Z,82.41
2017-08-28T01:52:52.820Z,82.51
2017-08-28T01:53:52.806Z,83.08
2017-08-28T01:54:52.794Z,83.46
2017-08-28T01:55:52.780Z,83.37
2017-08-28T01:56:52.772Z,82.7
2017-08-28T01:57:52.757Z,82.7
2017-08-28T01:58:52.745Z,82.7
2017-08-28T01:59:52.733Z,82.51
2017-08-28T02:00:52.770Z,82.7
2017-08-28T02:01:52.710Z,82.89
2017-08-28T02:02:52.896Z,82.7
2017-08-28T02:03:52.397Z,82.7
2017-08-28T02:04:52.350Z,82.7
2017-08-28T02:05:52.655Z,82.89
2017-08-28T02:06:52.640Z,82.51
2017-08-28T02:07:52.316Z,82.6
2017-08-28T02:08:52.298Z,82.98
2017-08-28T02:09:52.284Z,83.37
2017-08-28T02:10:52.272Z,83.17
2017-08-28T02:11:52.580Z,83.27
2017-08-28T02:12:52.248Z,83.37
2017-08-28T02:13:52.237Z,82.7
2017-08-28T02:14:52.223Z,82.98
2017-08-28T02:15:52.558Z,82.7
2017-08-28T02:16:52.204Z,82.51
2017-08-28T02:17:52.186Z,82.6
2017-08-28T02:18:52.172Z,82.7
2017-08-28T02:19:52.480Z,81.74
2017-08-28T02:20:52.152Z,82.22
2017-08-28T02:21:52.138Z,82.12
2017-08-28T02:22:52.124Z,82.03
2017-08-28T02:23:52.115Z,82.22
2017-08-28T02:24:52.098Z,81.84
2017-08-28T02:25:52.086Z,81.93
2017-08-28T02:26:52.073Z,81.55
2017-08-28T02:27:52.382Z,81.74
2017-08-28T02:28:52.049Z,81.45
2017-08-28T02:29:52.365Z,81.26
2017-08-28T02:30:52.345Z,81.55
2017-08-28T02:31:52.009Z,81.74
2017-08-28T02:32:52.000Z,81.84
2017-08-28T02:33:52.305Z,82.03
2017-08-28T02:34:52.297Z,81.84
2017-08-28T02:35:51.965Z,80.98
2017-08-28T02:36:52.270Z,81.74
2017-08-28T02:37:51.940Z,81.65
2017-08-28T02:38:51.923Z,82.12
2017-08-28T02:39:52.236Z,81.93
2017-08-28T02:40:52.218Z,81.26
2017-08-28T02:41:52.219Z,81.07
2017-08-28T02:42:51.874Z,81.84
2017-08-28T02:43:52.178Z,81.74
2017-08-28T02:44:51.847Z,82.03
2017-08-28T02:45:51.841Z,81.65
2017-08-28T02:46:51.820Z,81.65
2017-08-28T02:47:51.818Z,81.26
2017-08-28T02:48:51.795Z,82.03
2017-08-28T02:49:51.783Z,80.98
2017-08-28T02:50:52.108Z,81.26
2017-08-28T02:51:51.759Z,81.07
2017-08-28T02:52:52.070Z,80.88
2017-08-28T02:53:51.732Z,81.07
2017-08-28T02:54:52.040Z,81.36
2017-08-28T02:55:52.028Z,80.69
2017-08-28T02:56:52.018Z,80.93
2017-08-28T02:57:52.003Z,80.5
2017-08-28T02:58:51.994Z,80.69
2017-08-28T02:59:51.975Z,80.79
2017-08-28T03:00:51.970Z,80.79
2017-08-28T03:01:51.631Z,80.55
2017-08-28T03:02:51.938Z,80.98
2017-08-28T03:03:51.606Z,80.27
2017-08-28T03:04:51.591Z,80.84
2017-08-28T03:05:51.579Z,80.59
2017-08-28T03:06:51.565Z,80.55
2017-08-28T03:07:51.874Z,80.5
2017-08-28T03:08:51.866Z,79.73
2017-08-28T03:09:51.530Z,80.46
2017-08-28T03:10:51.516Z,80.11
2017-08-28T03:11:51.827Z,79.6
2017-08-28T03:12:51.811Z,79.69
2017-08-28T03:13:51.799Z,79.31
2017-08-28T03:14:51.789Z,79.41
2017-08-28T03:15:51.452Z,79.22
2017-08-28T03:16:51.441Z,79.31
2017-08-28T03:17:51.428Z,79.5
2017-08-28T03:18:51.735Z,79.6
2017-08-28T03:19:51.730Z,79.44
2017-08-28T03:20:51.390Z,79.5
2017-08-28T03:21:51.375Z,79.31
2017-08-28T03:22:51.684Z,79.22
2017-08-28T03:23:51.351Z,78.55
2017-08-28T03:24:51.340Z,78.45
2017-08-28T03:25:51.326Z,78.36
2017-08-28T03:26:51.310Z,78.93
2017-08-28T03:27:51.623Z,79.02
2017-08-28T03:28:51.286Z,79.79
2017-08-28T03:29:51.592Z,79.41
2017-08-28T03:30:51.260Z,79.12
2017-08-28T03:31:51.248Z,78.74
2017-08-28T03:32:51.243Z,78.55
2017-08-28T03:33:51.549Z,77.97
2017-08-28T03:34:51.531Z,77.87
2017-08-28T03:35:51.197Z,79.22
2017-08-28T03:36:51.508Z,79.22
2017-08-28T03:37:51.176Z,77.97
2017-08-28T03:38:51.506Z,77.87
2017-08-28T03:39:51.146Z,77.87
2017-08-28T03:40:51.136Z,77.5
2017-08-28T03:41:51.133Z,77.21
2017-08-28T03:42:51.453Z,77.5
2017-08-28T03:43:51.415Z,76.54
2017-08-28T03:44:51.399Z,76.82
2017-08-28T03:45:51.071Z,76.82
2017-08-28T03:46:51.377Z,76.64
2017-08-28T03:47:51.042Z,76.73
2017-08-28T03:48:51.032Z,76.92
2017-08-28T03:49:51.017Z,76.82
2017-08-28T03:50:51.325Z,76.64
2017-08-28T03:51:51.314Z,76.35
2017-08-28T03:52:51.304Z,76.45
2017-08-28T03:53:51.288Z,76.25
2017-08-28T03:54:51.282Z,76.35
2017-08-28T03:55:50.942Z,75.59
2017-08-28T03:56:50.928Z,75.68
2017-08-28T03:57:51.236Z,75.59
2017-08-28T03:58:50.907Z,75.59
2017-08-28T03:59:51.210Z,75.87
2017-08-28T04:00:50.877Z,75.49
2017-08-28T04:01:50.864Z,76.06
2017-08-28T04:02:51.053Z,75.68
2017-08-28T04:03:50.838Z,75.59
2017-08-28T04:04:50.828Z,75.39
2017-08-28T04:05:51.137Z,75.59
2017-08-28T04:06:50.797Z,75.49
2017-08-28T04:07:51.108Z,75.2
2017-08-28T04:08:51.096Z,74.73
2017-08-28T04:09:50.760Z,74.73
2017-08-28T04:10:50.747Z,74.82
2017-08-28T04:11:50.736Z,74.82
2017-08-28T04:12:51.042Z,74.91
2017-08-28T04:13:50.712Z,74.91
2017-08-28T04:14:50.693Z,74.82
2017-08-28T04:15:51.000Z,75.1
2017-08-28T04:16:50.670Z,74.53
2017-08-28T04:17:51.021Z,74.73
2017-08-28T04:18:50.964Z,74.53
2017-08-28T04:19:50.633Z,74.34
2017-08-28T04:20:50.941Z,74.53
2017-08-28T04:21:50.605Z,73.77
2017-08-28T04:22:50.918Z,74.82
2017-08-28T04:23:50.900Z,75.1
2017-08-28T04:24:50.887Z,74.91
2017-08-28T04:25:50.558Z,75.2
2017-08-28T04:26:50.865Z,75.68
2017-08-28T04:27:50.530Z,74.63
2017-08-28T04:28:50.517Z,75.96
2017-08-28T04:29:50.824Z,75.39
2017-08-28T04:30:50.491Z,75.39
2017-08-28T04:31:50.802Z,75.68
2017-08-28T04:32:50.463Z,75.78
2017-08-28T04:33:50.449Z,74.91
2017-08-28T04:34:50.437Z,75.59
2017-08-28T04:35:50.423Z,75.68
2017-08-28T04:36:50.731Z,75.3
2017-08-28T04:37:50.397Z,75.01
2017-08-28T04:38:50.710Z,74.91
2017-08-28T04:39:50.370Z,75.01
2017-08-28T04:40:50.358Z,74.91
2017-08-28T04:41:50.346Z,75.2
2017-08-28T04:42:50.654Z,75.68
2017-08-28T04:43:50.640Z,75.59
2017-08-28T04:44:50.629Z,75.1
2017-08-28T04:45:50.618Z,74.82
2017-08-28T04:46:50.604Z,75.1
2017-08-28T04:47:50.595Z,74.73
2017-08-28T04:48:50.576Z,75.01
2017-08-28T04:49:50.242Z,74.73
2017-08-28T04:50:50.557Z,75.3
2017-08-28T04:51:50.542Z,75.01
2017-08-28T04:52:50.522Z,74.63
2017-08-28T04:53:50.193Z,74.15
2017-08-28T04:54:50.178Z,74.44
2017-08-28T04:55:50.168Z,74.73
2017-08-28T04:56:50.474Z,74.44
2017-08-28T04:57:50.138Z,74.34
2017-08-28T04:58:50.446Z,74.05
2017-08-28T04:59:50.434Z,73.58
2017-08-28T05:00:50.421Z,73.39
2017-08-28T05:01:50.408Z,74.15
2017-08-28T05:02:50.073Z,74.73
2017-08-28T05:03:50.062Z,74.82
2017-08-28T05:04:50.374Z,73.77
2017-08-28T05:05:50.356Z,73.96
2017-08-28T05:06:50.022Z,73.77
2017-08-28T05:07:50.332Z,73.19
2017-08-28T05:08:49.995Z,73.48
2017-08-28T05:09:50.307Z,73.58
2017-08-28T05:10:50.290Z,74.73
2017-08-28T05:11:49.963Z,72.91
2017-08-28T05:12:49.944Z,72.53
2017-08-28T05:13:49.932Z,73.77
2017-08-28T05:14:49.918Z,74.34
2017-08-28T05:15:50.238Z,73.39
2017-08-28T05:16:49.894Z,73.1
2017-08-28T05:17:49.886Z,73.43
2017-08-28T05:18:49.868Z,73.8
2017-08-28T05:19:50.185Z,73.39
2017-08-28T05:20:50.165Z,73.23
2017-08-28T05:21:49.833Z,72.91
2017-08-28T05:22:49.819Z,72.56
2017-08-28T05:23:50.123Z,73.14
2017-08-28T05:24:50.111Z,73.23
2017-08-28T05:25:50.104Z,73.23
2017-08-28T05:26:49.768Z,73.14
2017-08-28T05:27:50.075Z,73.33
2017-08-28T05:28:50.072Z,73.04
2017-08-28T05:29:50.050Z,72.85
2017-08-28T05:30:50.038Z,72.56
2017-08-28T05:31:49.704Z,72.85
2017-08-28T05:32:50.011Z,72.47
2017-08-28T05:33:49.680Z,72.37
2017-08-28T05:34:49.664Z,72.56
2017-08-28T05:35:49.651Z,72.37
2017-08-28T05:36:49.641Z,73.14
2017-08-28T05:37:49.948Z,72.47
2017-08-28T05:38:49.937Z,72.66
2017-08-28T05:39:49.924Z,72.94
2017-08-28T05:40:49.590Z,73.14
2017-08-28T05:41:49.575Z,73.43
2017-08-28T05:42:49.568Z,73.33
2017-08-28T05:43:49.871Z,73.9
2017-08-28T05:44:49.538Z,73.9
2017-08-28T05:45:49.845Z,73.52
2017-08-28T05:46:49.836Z,73.8
2017-08-28T05:47:49.499Z,73.99
2017-08-28T05:48:49.487Z,73.99
2017-08-28T05:49:49.478Z,73.8
2017-08-28T05:50:49.780Z,74.57
2017-08-28T05:51:49.450Z,74.9
2017-08-28T05:52:49.757Z,74.61
2017-08-28T05:53:49.424Z,74.8
2017-08-28T05:54:49.730Z,74.9
2017-08-28T05:55:49.719Z,75.18
2017-08-28T05:56:49.385Z,74.61
2017-08-28T05:57:49.696Z,74.7
2017-08-28T05:58:49.692Z,75.09
2017-08-28T05:59:49.676Z,75.56
2017-08-28T06:00:49.337Z,75.66
2017-08-28T06:01:49.645Z,75.56
2017-08-28T06:02:49.519Z,75.66
2017-08-28T06:03:49.303Z,75.47
2017-08-28T06:04:49.288Z,75.27
2017-08-28T06:05:49.278Z,75.37
2017-08-28T06:06:49.588Z,75.56
2017-08-28T06:07:49.604Z,76.14
2017-08-28T06:08:49.243Z,76.62
2017-08-28T06:09:49.601Z,76.33
2017-08-28T06:10:49.217Z,76.71
2017-08-28T06:11:49.526Z,77.04
2017-08-28T06:12:49.513Z,77.33
2017-08-28T06:13:49.180Z,77.61
2017-08-28T06:14:49.509Z,77.23
2017-08-28T06:15:49.473Z,76.46
2017-08-28T06:16:49.143Z,77.99
2017-08-28T06:17:49.131Z,78.95
2017-08-28T06:18:49.441Z,78.86
2017-08-28T06:19:49.105Z,78.47
2017-08-28T06:20:49.092Z,78.47
2017-08-28T06:21:49.082Z,78.28
2017-08-28T06:22:49.069Z,78.66
2017-08-28T06:23:49.381Z,78.86
2017-08-28T06:24:49.046Z,79.72
2017-08-28T06:25:49.353Z,80
2017-08-28T06:26:49.019Z,80.14
2017-08-28T06:27:49.330Z,80.33
2017-08-28T06:28:49.317Z,79.18
2017-08-28T06:29:48.982Z,81.48
2017-08-28T06:30:48.970Z,81.48
2017-08-28T06:31:49.282Z,82.06
2017-08-28T06:32:48.949Z,82.34
2017-08-28T06:33:49.258Z,82.06
2017-08-28T06:34:48.932Z,83.97
2017-08-28T06:35:48.918Z,84.06
2017-08-28T06:36:49.224Z,84.16
2017-08-28T06:37:49.209Z,83.59
2017-08-28T06:38:48.878Z,82.92
2017-08-28T06:39:48.868Z,84.78
2017-08-28T06:40:49.173Z,84.97
2017-08-28T06:41:49.162Z,84.97
2017-08-28T06:42:48.831Z,84.68
2017-08-28T06:43:48.819Z,84.49
2017-08-28T06:44:48.806Z,85.35
2017-08-28T06:45:48.796Z,87.74
2017-08-28T06:46:49.108Z,87.74
2017-08-28T06:47:48.773Z,87.17
2017-08-28T06:48:49.078Z,86.69
2017-08-28T06:49:49.071Z,86.31
2017-08-28T06:50:49.066Z,87.17
2017-08-28T06:51:49.054Z,86.79
2017-08-28T06:52:48.721Z,87.46
2017-08-28T06:53:48.706Z,89.09
2017-08-28T06:54:48.694Z,88.42
2017-08-28T06:55:49.005Z,88.37
2017-08-28T06:56:48.671Z,88.46
2017-08-28T06:57:48.663Z,88.75
2017-08-28T06:58:48.648Z,88.84
2017-08-28T06:59:48.638Z,89.13
2017-08-28T07:00:48.948Z,90.38
2017-08-28T07:01:48.618Z,91.53
2017-08-28T07:02:48.923Z,90.47
2017-08-28T07:03:48.589Z,90
2017-08-28T07:04:48.901Z,89.42
2017-08-28T07:05:48.568Z,89.42
2017-08-28T07:06:48.561Z,90.09
2017-08-28T07:07:48.867Z,89.32
2017-08-28T07:08:48.535Z,89.27
2017-08-28T07:09:48.848Z,89.18
2017-08-28T07:10:48.834Z,89.94
2017-08-28T07:11:48.825Z,89.85
2017-08-28T07:12:48.814Z,90.33
2017-08-28T07:13:48.480Z,90.14
2017-08-28T07:14:48.791Z,91.57
2017-08-28T07:15:48.780Z,91.67
2017-08-28T07:16:48.765Z,92.63
2017-08-28T07:17:48.757Z,91.48
2017-08-28T07:18:48.426Z,91.48
2017-08-28T07:19:48.735Z,93.54
2017-08-28T07:20:48.404Z,93.54
2017-08-28T07:21:48.395Z,93.25
2017-08-28T07:22:48.383Z,90.95
2017-08-28T07:23:48.691Z,92.19
2017-08-28T07:24:48.683Z,95.26
2017-08-28T07:25:48.675Z,94.98
2017-08-28T07:26:48.659Z,94.12
2017-08-28T07:27:48.654Z,93.63
2017-08-28T07:28:48.639Z,92.58
2017-08-28T07:29:48.629Z,93.25
2017-08-28T07:30:48.619Z,95.84
2017-08-28T07:31:48.286Z,96.03
2017-08-28T07:32:48.623Z,95.17
2017-08-28T07:33:48.597Z,94.16
2017-08-28T07:34:48.259Z,96.18
2017-08-28T07:35:48.244Z,95.12
2017-08-28T07:36:48.235Z,95.31
2017-08-28T07:37:48.550Z,95.98
2017-08-28T07:38:48.213Z,96.27
2017-08-28T07:39:48.525Z,99.73
2017-08-28T07:40:48.194Z,99.05
2017-08-28T07:41:48.186Z,97.52
2017-08-28T07:42:48.185Z,97.52
2017-08-28T07:43:48.183Z,97.76
2017-08-28T07:44:48.152Z,96.99
2017-08-28T07:45:48.143Z,97.19
2017-08-28T07:46:48.131Z,97.57
2017-08-28T07:47:48.440Z,96.51
2017-08-28T07:48:48.112Z,98.14
2017-08-28T07:49:48.100Z,99.99
2017-08-28T07:50:48.410Z,99.99
2017-08-28T07:51:48.081Z,99.78
2017-08-28T07:52:48.395Z,99.01
2017-08-28T07:53:48.063Z,99.99
2017-08-28T07:54:48.055Z,99.99
2017-08-28T07:55:48.369Z,99.99
2017-08-28T07:56:48.034Z,99.99
2017-08-28T07:57:48.021Z,99.99
2017-08-28T07:58:48.334Z,99.99
2017-08-28T07:59:48.002Z,99.99
2017-08-28T08:00:48.312Z,99.99
2017-08-28T08:01:47.983Z,99.99
2017-08-28T08:02:48.497Z,99.99
2017-08-28T08:03:47.964Z,99.99
2017-08-28T08:04:48.276Z,99.99
2017-08-28T08:05:47.943Z,98.44
2017-08-28T08:06:47.934Z,99.99
2017-08-28T08:07:47.923Z,99.99
2017-08-28T08:08:48.232Z,99.99
2017-08-28T08:09:48.228Z,99.99
2017-08-28T08:10:47.898Z,99.99
2017-08-28T08:11:47.895Z,99.99
2017-08-28T08:12:47.897Z,99.99
2017-08-28T08:13:48.191Z,99.99
2017-08-28T08:14:48.180Z,99.99
2017-08-28T08:15:48.175Z,99.99
2017-08-28T08:16:48.161Z,99.99
2017-08-28T08:17:47.830Z,99.99
2017-08-28T08:18:48.148Z,99.99
2017-08-28T08:19:47.814Z,99.99
2017-08-28T08:20:47.807Z,99.99
2017-08-28T08:21:48.121Z,99.99
2017-08-28T08:22:48.106Z,99.99
2017-08-28T08:23:48.103Z,99.99
2017-08-28T08:24:48.094Z,99.99
2017-08-28T08:25:48.081Z,99.99
2017-08-28T08:26:47.766Z,99.99
2017-08-28T08:27:48.068Z,99.99
2017-08-28T08:28:47.747Z,99.99
2017-08-28T08:29:48.060Z,99.99
2017-08-28T08:30:48.043Z,99.99
2017-08-28T08:31:48.040Z,99.99
2017-08-28T08:32:48.034Z,99.99
2017-08-28T08:33:48.016Z,99.99
2017-08-28T08:34:48.008Z,99.99
2017-08-28T08:35:48.000Z,99.99
2017-08-28T08:36:47.994Z,99.99
2017-08-28T08:37:47.666Z,99.99
2017-08-28T08:38:47.656Z,99.99
2017-08-28T08:39:47.649Z,99.99
2017-08-28T08:40:47.639Z,99.99
2017-08-28T08:41:47.957Z,99.99
2017-08-28T08:42:47.623Z,99.99
2017-08-28T08:43:47.941Z,99.99
2017-08-28T08:44:47.612Z,99.99
2017-08-28T08:45:47.922Z,99.99
2017-08-28T08:46:47.592Z,99.99
2017-08-28T08:47:47.586Z,99.99
2017-08-28T08:48:47.899Z,99.99
2017-08-28T08:49:47.572Z,99.99
2017-08-28T08:50:47.886Z,99.99
2017-08-28T08:51:47.881Z,99.99
2017-08-28T08:52:47.548Z,99.99
2017-08-28T08:53:47.540Z,99.99
2017-08-28T08:54:47.854Z,99.99
2017-08-28T08:55:47.846Z,99.99
2017-08-28T08:56:47.838Z,99.99
2017-08-28T08:57:47.832Z,99.99
2017-08-28T08:58:47.503Z,99.99
2017-08-28T08:59:47.823Z,99.99
2017-08-28T09:00:47.487Z,99.99
2017-08-28T09:01:47.804Z,99.99
2017-08-28T09:02:47.794Z,99.99
2017-08-28T09:03:47.787Z,99.99
2017-08-28T09:04:47.458Z,99.99
2017-08-28T09:05:47.772Z,99.99
2017-08-28T09:06:47.764Z,99.99
2017-08-28T09:07:47.438Z,99.99
2017-08-28T09:08:47.429Z,99.99
2017-08-28T09:09:47.429Z,99.99
2017-08-28T09:10:47.416Z,99.99
2017-08-28T09:11:47.732Z,99.99
2017-08-28T09:12:47.721Z,99.99
2017-08-28T09:13:47.393Z,99.99
2017-08-28T09:14:47.386Z,99.99
2017-08-28T09:15:47.699Z,99.99
2017-08-28T09:16:47.693Z,99.99
2017-08-28T09:17:47.684Z,99.99
2017-08-28T09:18:47.363Z,99.99
2017-08-28T09:19:47.351Z,99.99
2017-08-28T09:20:47.344Z,99.99
2017-08-28T09:21:47.346Z,99.99
2017-08-28T09:22:47.655Z,99.99
2017-08-28T09:23:47.650Z,99.99
2017-08-28T09:24:47.641Z,99.99
2017-08-28T09:25:47.311Z,99.99
2017-08-28T09:26:47.627Z,99.99
2017-08-28T09:27:47.617Z,99.99
2017-08-28T09:28:47.611Z,99.99
2017-08-28T09:29:47.283Z,99.99
2017-08-28T09:30:47.599Z,96.75
2017-08-28T09:31:47.272Z,97.91
2017-08-28T09:32:47.584Z,98
2017-08-28T09:33:47.579Z,99.07
2017-08-28T09:34:47.249Z,99.99
2017-08-28T09:35:47.245Z,99.99
2017-08-28T09:36:47.559Z,99.84
2017-08-28T09:37:47.231Z,97.81
2017-08-28T09:38:47.228Z,88.73
2017-08-28T09:39:47.215Z,90.86
2017-08-28T09:40:47.548Z,88.25
2017-08-28T09:41:47.523Z,86.32
2017-08-28T09:42:47.199Z,90.86
2017-08-28T09:43:47.190Z,91.83
2017-08-28T09:44:47.505Z,89.61
2017-08-28T09:45:47.499Z,85.55
2017-08-28T09:46:47.496Z,84.97
2017-08-28T09:47:47.492Z,90.09
2017-08-28T09:48:47.158Z,86.32
2017-08-28T09:49:47.157Z,86.32
2017-08-28T09:50:47.144Z,84
2017-08-28T09:51:47.139Z,82.36
2017-08-28T09:52:47.132Z,81.2
2017-08-28T09:53:47.127Z,80.82
2017-08-28T09:54:47.449Z,82.07
2017-08-28T09:55:47.434Z,83.62
2017-08-28T09:56:47.439Z,85.01
2017-08-28T09:57:47.418Z,81.11
2017-08-28T09:58:47.090Z,80.86
2017-08-28T09:59:47.409Z,83.56
2017-08-28T10:00:47.082Z,85.11
2017-08-28T10:01:47.073Z,89.07
2017-08-28T10:02:47.270Z,85.98
2017-08-28T10:03:47.380Z,87.43
2017-08-28T10:04:47.056Z,89.07
2017-08-28T10:05:47.371Z,88.39
2017-08-28T10:06:47.045Z,86.56
2017-08-28T10:07:47.364Z,84.14
2017-08-28T10:08:47.032Z,82.79
2017-08-28T10:09:47.346Z,86.85
2017-08-28T10:10:47.018Z,81.24
2017-08-28T10:11:47.368Z,83.37
2017-08-28T10:12:47.007Z,79.12
2017-08-28T10:13:47.000Z,78.83
2017-08-28T10:14:46.993Z,79.31
2017-08-28T10:15:46.987Z,77.48
2017-08-28T10:16:47.298Z,75.78
2017-08-28T10:17:46.992Z,78.48
2017-08-28T10:18:47.295Z,82.31
2017-08-28T10:19:47.282Z,79.8
2017-08-28T10:20:46.957Z,79.22
2017-08-28T10:21:47.267Z,81.29
2017-08-28T10:22:46.940Z,80.38
2017-08-28T10:23:46.933Z,78.06
2017-08-28T10:24:46.933Z,78.73
2017-08-28T10:25:47.248Z,77.76
2017-08-28T10:26:46.916Z,76.12
2017-08-28T10:27:47.236Z,76.16
2017-08-28T10:28:46.908Z,76.64
2017-08-28T10:29:46.907Z,76.26
2017-08-28T10:30:46.898Z,76.84
2017-08-28T10:31:47.207Z,80.9
2017-08-28T10:32:46.879Z,78.67
2017-08-28T10:33:46.875Z,78.09
2017-08-28T10:34:47.189Z,77.32
2017-08-28T10:35:47.185Z,78.67
2017-08-28T10:36:46.857Z,80.03
2017-08-28T10:37:47.177Z,76.29
2017-08-28T10:38:47.164Z,82.29
2017-08-28T10:39:46.839Z,78.33
2017-08-28T10:40:46.835Z,74.75
2017-08-28T10:41:46.828Z,76.29
2017-08-28T10:42:47.142Z,74.07
2017-08-28T10:43:46.819Z,75.56
2017-08-28T10:44:46.811Z,77.4
2017-08-28T10:45:47.127Z,75.27
2017-08-28T10:46:46.799Z,72.36
2017-08-28T10:47:46.798Z,72.46
2017-08-28T10:48:47.109Z,73.14
2017-08-28T10:49:46.784Z,74.3
2017-08-28T10:50:47.097Z,71.88
2017-08-28T10:51:47.097Z,75.37
2017-08-28T10:52:47.084Z,75.46
2017-08-28T10:53:47.077Z,76.24
2017-08-28T10:54:47.077Z,76.33
2017-08-28T10:55:47.068Z,74.98
2017-08-28T10:56:47.063Z,73.33
2017-08-28T10:57:47.059Z,74.11
2017-08-28T10:58:47.089Z,75.02
2017-08-28T10:59:46.726Z,76.28
2017-08-28T11:00:46.721Z,75.98
2017-08-28T11:01:46.720Z,72.34
2017-08-28T11:02:47.033Z,70.98
2017-08-28T11:03:47.031Z,69.47
2017-08-28T11:04:47.024Z,70.54
2017-08-28T11:05:47.017Z,68.02
2017-08-28T11:06:46.698Z,69.67
2017-08-28T11:07:46.691Z,70.73
2017-08-28T11:08:46.687Z,74.41
2017-08-28T11:09:47.004Z,70.37
2017-08-28T11:10:47.000Z,70.18
2017-08-28T11:11:46.999Z,68.34
2017-08-28T11:12:46.675Z,68.47
2017-08-28T11:13:46.993Z,65.27
2017-08-28T11:14:46.676Z,65.59
2017-08-28T11:15:46.993Z,69.18
2017-08-28T11:16:46.991Z,70
2017-08-28T11:17:46.666Z,68.48
2017-08-28T11:18:46.986Z,65.47
2017-08-28T11:19:46.981Z,65.95
2017-08-28T11:20:46.982Z,67.11
2017-08-28T11:21:46.660Z,66.08
2017-08-28T11:22:46.985Z,69.09
2017-08-28T11:23:46.661Z,66.5
2017-08-28T11:24:46.658Z,66.79
2017-08-28T11:25:46.984Z,66.93
2017-08-28T11:26:46.984Z,65.37
2017-08-28T11:27:46.985Z,62.6
2017-08-28T11:28:46.993Z,61.63
2017-08-28T11:29:46.988Z,60.23
2017-08-28T11:30:46.994Z,60.13
2017-08-28T11:31:46.996Z,63.28
2017-08-28T11:32:46.995Z,60.32
2017-08-28T11:33:46.684Z,57.88
2017-08-28T11:34:46.686Z,58.59
2017-08-28T11:35:46.691Z,58.79
2017-08-28T11:36:47.014Z,56.96
2017-08-28T11:37:46.696Z,57.93
2017-08-28T11:38:47.021Z,57.77
2017-08-28T11:39:46.708Z,54.77
2017-08-28T11:40:46.711Z,54.96
2017-08-28T11:41:46.719Z,53.62
2017-08-28T11:42:47.041Z,54.11
2017-08-28T11:43:47.046Z,51.49
2017-08-28T11:44:47.053Z,50.12
2017-08-28T11:45:47.056Z,55.11
2017-08-28T11:46:47.061Z,51.61
2017-08-28T11:47:46.746Z,52.23
2017-08-28T11:48:46.752Z,51.64
2017-08-28T11:49:47.079Z,48.82
2017-08-28T11:50:47.085Z,49.11
2017-08-28T11:51:46.768Z,47.84
2017-08-28T11:52:46.773Z,47.57
2017-08-28T11:53:46.780Z,49.53
2017-08-28T11:54:46.785Z,47.86
2017-08-28T11:55:47.110Z,46.49
2017-08-28T11:56:47.117Z,48.25
2017-08-28T11:57:47.124Z,50.02
2017-08-28T11:58:46.810Z,50.54
2017-08-28T11:59:47.152Z,47.32
2017-08-28T12:00:46.828Z,47.69
2017-08-28T12:01:47.146Z,50.24
2017-08-28T12:02:47.035Z,50.27
2017-08-28T12:03:47.157Z,50.39
2017-08-28T12:04:46.842Z,45.77
2017-08-28T12:05:47.184Z,45.77
2017-08-28T12:06:46.856Z,46.17
2017-08-28T12:07:47.202Z,47.74
2017-08-28T12:08:47.185Z,47.34
2017-08-28T12:09:46.873Z,47.17
2017-08-28T12:10:46.877Z,46.48
2017-08-28T12:11:47.202Z,46.21
2017-08-28T12:12:47.207Z,47.02
2017-08-28T12:13:47.218Z,45.74
2017-08-28T12:14:46.901Z,44.76
2017-08-28T12:15:47.228Z,46.62
2017-08-28T12:16:46.912Z,46.62
2017-08-28T12:17:47.240Z,47.41
2017-08-28T12:18:47.245Z,46.43
2017-08-28T12:19:46.931Z,46.33
2017-08-28T12:20:47.260Z,45.96
2017-08-28T12:21:47.270Z,46.28
2017-08-28T12:22:46.953Z,45
2017-08-28T12:23:46.956Z,46.47
2017-08-28T12:24:46.962Z,45.09
2017-08-28T12:25:46.969Z,44.21
2017-08-28T12:26:46.980Z,41.38
2017-08-28T12:27:47.308Z,41.38
2017-08-28T12:28:46.989Z,43.84
2017-08-28T12:29:47.321Z,44.06
2017-08-28T12:30:47.327Z,43.86
2017-08-28T12:31:47.008Z,43.66
2017-08-28T12:32:47.342Z,42.77
2017-08-28T12:33:47.026Z,45.43
2017-08-28T12:34:47.029Z,44.06
2017-08-28T12:35:47.037Z,44.06
2017-08-28T12:36:47.370Z,43.27
2017-08-28T12:37:47.052Z,42.47
2017-08-28T12:38:47.061Z,41.89
2017-08-28T12:39:47.065Z,43.56
2017-08-28T12:40:47.075Z,45.63
2017-08-28T12:41:47.400Z,41.89
2017-08-28T12:42:47.406Z,42.08
2017-08-28T12:43:47.095Z,41.59
2017-08-28T12:44:47.419Z,42.58
2017-08-28T12:45:47.105Z,42.58
2017-08-28T12:46:47.113Z,41.78
2017-08-28T12:47:47.122Z,41.69
2017-08-28T12:48:47.126Z,40.41
2017-08-28T12:49:47.460Z,43.37
2017-08-28T12:50:47.143Z,45.73
2017-08-28T12:51:47.471Z,44.25
2017-08-28T12:52:47.153Z,42.77
2017-08-28T12:53:47.493Z,41.57
2017-08-28T12:54:47.492Z,44.8
2017-08-28T12:55:47.492Z,45.09